Arcadia, FL

11:34 AM EST on November 22, 2014 (GMT -0500)
At the EOC | Change Station
CLOSE
Current Station
Personal Weather Station
Location: Arcadia, FL
Elevation: 50 ft
Nearby Weather Stations

Elev 50 ft 27.21 °N, 81.86 °W | Updated 4 seconds ago

Mostly Cloudy
Mostly Cloudy
78.4 °F
Feels Like 81 °F
N
11.2
Wind Variable Wind from ENE
Gusts 15.8 mph

Today
High -- | Low -- °F
--% Chance of Precip.
Yesterday
High -- | Low -- °F
Precip. -- in
6:52 AM 5:33 PM
New Moon, 0% visible
Pressure 30.21 in
Visibility 10.0 miles
Clouds Scattered Clouds 3000 ft
Mostly Cloudy 3900 ft
Heat Index 81 °F
Dew Point 68 °F
Humidity 69%
Rainfall 0.00 in
Snow Depth Not available.
UV 3 out of 12
Pollen 4.50 out of 12
Air Quality Not available.
Flu Activity Not available.
METAR KPGD 221553Z 11014G21KT 10SM SCT030 BKN039 27/19 A3020 RMK AO2 SLP228 T02670194

More Conditions Fewer Conditions

Pressure 30.21 in
Visibility 10.0 miles
Clouds Scattered Clouds 3000 ft
Mostly Cloudy 3900 ft
Heat Index 81 °F
Dew Point 68 °F
Humidity 69%
Rainfall 0.00 in
Snow Depth Not available.
UV 3 out of 12
Pollen 4.50 out of 12
Air Quality Not available.
Flu Activity Not available.
METAR KPGD 221553Z 11014G21KT 10SM SCT030 BKN039 27/19 A3020 RMK AO2 SLP228 T02670194

More Conditions Fewer Conditions

10-Day Weather Forecast

Almanac

Astronomy

Nov. 22, 2014 Rise Set
Actual Time
Civil Twilight
Nautical Twilight
Astronomical Twilight
Moon
Length of Visible Light
Length of Day
Tomorrow will be .
, % of the Moon is Illuminated

Today's Extremes

State Highs State Lows

Community

WunderPhotos

Upload Photos

1,772,847 photos uploaded!

WunderBlogs® & News

Nearby

Air Quality

  Air Quality AQ Index Pollutant
Not available.

Snow Depth

Station Depth Elevation

Earthquake Activity

City Distance Mag. Time & Date
Minimum magnitude displayed is 2.5.

Coastal Water Temperatures

Place Temperature

Nearby Weather Stations